createdAt,value
2023-02-26T00:00:39.083Z,1006.51
2023-02-26T00:01:39.312Z,1006.53
2023-02-26T00:02:39.522Z,1006.52
2023-02-26T00:03:39.717Z,1006.56
2023-02-26T00:04:39.969Z,1006.56
2023-02-26T00:05:40.173Z,1006.57
2023-02-26T00:06:40.421Z,1006.60
2023-02-26T00:07:40.642Z,1006.58
2023-02-26T00:08:40.832Z,1006.61
2023-02-26T00:09:41.052Z,1006.61
2023-02-26T00:10:41.250Z,1006.67
2023-02-26T00:11:41.536Z,1006.66
2023-02-26T00:12:41.748Z,1006.67
2023-02-26T00:13:41.935Z,1006.68
2023-02-26T00:14:42.053Z,1006.67
2023-02-26T00:15:42.262Z,1006.69
2023-02-26T00:16:42.514Z,1006.70
2023-02-26T00:17:42.743Z,1006.75
2023-02-26T00:18:42.981Z,1006.73
2023-02-26T00:19:43.204Z,1006.76
2023-02-26T00:20:43.401Z,1006.78
2023-02-26T00:21:43.630Z,1006.76
2023-02-26T00:22:43.851Z,1006.81
2023-02-26T00:23:44.084Z,1006.80
2023-02-26T00:24:44.269Z,1006.84
2023-02-26T00:25:44.502Z,1006.83
2023-02-26T00:26:44.700Z,1006.92
2023-02-26T00:27:44.912Z,1006.89
2023-02-26T00:28:45.126Z,1006.90
2023-02-26T00:29:45.317Z,1006.94
2023-02-26T00:30:45.589Z,1006.97
2023-02-26T00:31:45.911Z,1006.95
2023-02-26T00:32:46.003Z,1006.99
2023-02-26T00:33:46.097Z,1007.01
2023-02-26T00:34:46.293Z,1007.02
2023-02-26T00:35:46.523Z,1007.06
2023-02-26T00:36:46.764Z,1007.05
2023-02-26T00:37:46.980Z,1007.05
2023-02-26T00:38:47.186Z,1007.07
2023-02-26T00:39:47.414Z,1007.06
2023-02-26T00:40:47.634Z,1007.04
2023-02-26T00:41:47.853Z,1007.09
2023-02-26T00:42:48.062Z,1007.06
2023-02-26T00:43:48.285Z,1007.08
2023-02-26T00:44:48.504Z,1007.08
2023-02-26T00:45:48.740Z,1007.10
2023-02-26T00:46:48.984Z,1007.10
2023-02-26T00:47:49.218Z,1007.12
2023-02-26T00:48:49.423Z,1007.13
2023-02-26T00:49:49.640Z,1007.13
2023-02-26T00:50:49.879Z,1007.15
2023-02-26T00:51:50.125Z,1007.14
2023-02-26T00:52:50.351Z,1007.16
2023-02-26T00:53:50.559Z,1007.22
2023-02-26T00:54:50.761Z,1007.23
2023-02-26T00:55:50.978Z,1007.20
2023-02-26T00:56:51.192Z,1007.23
2023-02-26T00:57:51.396Z,1007.25
2023-02-26T00:58:51.587Z,1007.26
2023-02-26T00:59:51.805Z,1007.28
2023-02-26T01:00:51.979Z,1007.23
2023-02-26T01:01:52.223Z,1007.32
2023-02-26T01:02:52.394Z,1007.26
2023-02-26T01:03:52.657Z,1007.27
2023-02-26T01:04:52.854Z,1007.32
2023-02-26T01:05:53.084Z,1007.29
2023-02-26T01:06:53.286Z,1007.30
2023-02-26T01:07:53.515Z,1007.29
2023-02-26T01:08:53.708Z,1007.33
2023-02-26T01:09:53.944Z,1007.34
2023-02-26T01:10:54.154Z,1007.35
2023-02-26T01:11:54.373Z,1007.37
2023-02-26T01:12:54.573Z,1007.35
2023-02-26T01:13:54.763Z,1007.38
2023-02-26T01:14:54.964Z,1007.38
2023-02-26T01:15:55.188Z,1007.38
2023-02-26T01:16:55.382Z,1007.39
2023-02-26T01:17:55.578Z,1007.48
2023-02-26T01:18:55.768Z,1007.48
2023-02-26T01:19:55.954Z,1007.45
2023-02-26T01:20:56.132Z,1007.47
2023-02-26T01:21:56.348Z,1007.44
2023-02-26T01:22:56.559Z,1007.50
2023-02-26T01:23:56.757Z,1007.49
2023-02-26T01:24:57.005Z,1007.49
2023-02-26T01:25:57.200Z,1007.47
2023-02-26T01:26:57.403Z,1007.55
2023-02-26T01:27:57.605Z,1007.54
2023-02-26T01:28:57.786Z,1007.54
2023-02-26T01:29:57.997Z,1007.55
2023-02-26T01:30:58.290Z,1007.55
2023-02-26T01:31:58.624Z,1007.54
2023-02-26T01:32:58.616Z,1007.58
2023-02-26T01:33:58.832Z,1007.59
2023-02-26T01:34:59.010Z,1007.61
2023-02-26T01:35:59.227Z,1007.61
2023-02-26T01:36:59.446Z,1007.65
2023-02-26T01:37:59.634Z,1007.63
2023-02-26T01:38:59.832Z,1007.62
2023-02-26T01:40:00.016Z,1007.58
2023-02-26T01:41:00.211Z,1007.59
2023-02-26T01:42:00.419Z,1007.57
2023-02-26T01:43:00.630Z,1007.57
2023-02-26T01:44:00.833Z,1007.62
2023-02-26T01:45:01.019Z,1007.61
2023-02-26T01:46:01.229Z,1007.64
2023-02-26T01:47:01.449Z,1007.64
2023-02-26T01:48:01.660Z,1007.64
2023-02-26T01:49:01.860Z,1007.67
2023-02-26T01:50:02.044Z,1007.72
2023-02-26T01:51:02.234Z,1007.66
2023-02-26T01:52:02.446Z,1007.71
2023-02-26T01:53:02.693Z,1007.69
2023-02-26T01:54:02.886Z,1007.71
2023-02-26T01:55:03.080Z,1007.70
2023-02-26T01:56:03.267Z,1007.70
2023-02-26T01:57:03.473Z,1007.66
2023-02-26T01:58:03.694Z,1007.67
2023-02-26T01:59:03.889Z,1007.74
2023-02-26T02:00:04.081Z,1007.72
2023-02-26T02:01:04.288Z,1007.75
2023-02-26T02:02:04.480Z,1007.77
2023-02-26T02:03:04.727Z,1007.79
2023-02-26T02:04:04.910Z,1007.79
2023-02-26T02:05:05.107Z,1007.81
2023-02-26T02:06:05.398Z,1007.78
2023-02-26T02:07:05.488Z,1007.82
2023-02-26T02:08:05.749Z,1007.84
2023-02-26T02:09:05.827Z,1007.84
2023-02-26T02:10:06.021Z,1007.90
2023-02-26T02:11:06.221Z,1007.88
2023-02-26T02:12:06.418Z,1007.93
2023-02-26T02:13:06.602Z,1007.96
2023-02-26T02:14:06.814Z,1007.96
2023-02-26T02:15:07.007Z,1007.91
2023-02-26T02:16:07.237Z,1007.95
2023-02-26T02:17:07.409Z,1007.93
2023-02-26T02:18:07.602Z,1008.04
2023-02-26T02:19:07.842Z,1007.97
2023-02-26T02:20:07.992Z,1008.08
2023-02-26T02:21:08.160Z,1008.07
2023-02-26T02:22:08.362Z,1008.05
2023-02-26T02:23:08.545Z,1008.08
2023-02-26T02:24:08.737Z,1008.14
2023-02-26T02:25:08.908Z,1008.15
2023-02-26T02:26:09.108Z,1008.17
2023-02-26T02:27:09.307Z,1008.18
2023-02-26T02:28:09.501Z,1008.20
2023-02-26T02:29:09.731Z,1008.22
2023-02-26T02:30:09.906Z,1008.24
2023-02-26T02:31:10.122Z,1008.28
2023-02-26T02:32:10.465Z,1008.30
2023-02-26T02:33:10.478Z,1008.30
2023-02-26T02:34:10.665Z,1008.30
2023-02-26T02:35:10.853Z,1008.30
2023-02-26T02:36:11.070Z,1008.30
2023-02-26T02:37:11.279Z,1008.31
2023-02-26T02:38:11.514Z,1008.33
2023-02-26T02:39:11.702Z,1008.33
2023-02-26T02:40:11.901Z,1008.31
2023-02-26T02:41:12.146Z,1008.33
2023-02-26T02:42:12.400Z,1008.32
2023-02-26T02:43:12.680Z,1008.34
2023-02-26T02:44:12.767Z,1008.36
2023-02-26T02:45:12.952Z,1008.39
2023-02-26T02:46:13.237Z,1008.37
2023-02-26T02:47:13.358Z,1008.41
2023-02-26T02:48:13.561Z,1008.39
2023-02-26T02:49:13.753Z,1008.46
2023-02-26T02:50:13.957Z,1008.42
2023-02-26T02:51:14.117Z,1008.43
2023-02-26T02:52:14.315Z,1008.44
2023-02-26T02:53:14.491Z,1008.41
2023-02-26T02:54:14.715Z,1008.45
2023-02-26T02:55:14.876Z,1008.48
2023-02-26T02:56:15.075Z,1008.47
2023-02-26T02:57:15.262Z,1008.46
2023-02-26T02:58:15.474Z,1008.54
2023-02-26T02:59:15.674Z,1008.54
2023-02-26T03:00:15.868Z,1008.53
2023-02-26T03:01:16.097Z,1008.56
2023-02-26T03:02:16.379Z,1008.53
2023-02-26T03:03:16.470Z,1008.54
2023-02-26T03:04:16.652Z,1008.50
2023-02-26T03:05:16.819Z,1008.56
2023-02-26T03:06:24.021Z,1008.55
2023-02-26T03:07:17.181Z,1008.55
2023-02-26T03:08:17.370Z,1008.59
2023-02-26T03:09:17.566Z,1008.57
2023-02-26T03:10:17.749Z,1008.59
2023-02-26T03:11:17.925Z,1008.56
2023-02-26T03:12:18.158Z,1008.63
2023-02-26T03:13:18.373Z,1008.57
2023-02-26T03:14:18.574Z,1008.65
2023-02-26T03:15:18.756Z,1008.67
2023-02-26T03:16:19.016Z,1008.67
2023-02-26T03:17:19.217Z,1008.69
2023-02-26T03:18:19.403Z,1008.70
2023-02-26T03:19:19.582Z,1008.73
2023-02-26T03:20:19.781Z,1008.76
2023-02-26T03:21:19.957Z,1008.78
2023-02-26T03:22:20.155Z,1008.81
2023-02-26T03:23:20.336Z,1008.85
2023-02-26T03:24:20.552Z,1008.84
2023-02-26T03:25:20.718Z,1008.85
2023-02-26T03:26:20.920Z,1008.88
2023-02-26T03:27:21.111Z,1008.86
2023-02-26T03:28:21.292Z,1008.84
2023-02-26T03:29:21.466Z,1008.88
2023-02-26T03:30:21.658Z,1008.90
2023-02-26T03:31:21.960Z,1008.90
2023-02-26T03:32:22.249Z,1008.92
2023-02-26T03:33:22.336Z,1008.97
2023-02-26T03:34:22.516Z,1008.95
2023-02-26T03:35:22.709Z,1008.98
2023-02-26T03:36:23.349Z,1008.96
2023-02-26T03:37:23.153Z,1009.03
2023-02-26T03:38:23.327Z,1009.03
2023-02-26T03:39:23.512Z,1009.01
2023-02-26T03:40:23.692Z,1009.00
2023-02-26T03:41:23.875Z,1009.04
2023-02-26T03:42:24.064Z,1009.06
2023-02-26T03:43:24.250Z,1009.08
2023-02-26T03:44:24.439Z,1009.13
2023-02-26T03:45:24.625Z,1009.14
2023-02-26T03:46:25.098Z,1009.22
2023-02-26T03:47:25.034Z,1009.19
2023-02-26T03:48:25.230Z,1009.22
2023-02-26T03:49:25.415Z,1009.24
2023-02-26T03:50:25.593Z,1009.21
2023-02-26T03:51:25.799Z,1009.30
2023-02-26T03:52:25.977Z,1009.29
2023-02-26T03:53:26.162Z,1009.29
2023-02-26T03:54:26.331Z,1009.32
2023-02-26T03:55:26.523Z,1009.35
2023-02-26T03:56:27.029Z,1009.34
2023-02-26T03:57:26.953Z,1009.38
2023-02-26T03:58:27.130Z,1009.40
2023-02-26T03:59:27.316Z,1009.40
2023-02-26T04:00:27.482Z,1009.44
2023-02-26T04:01:27.671Z,1009.45
2023-02-26T04:02:27.894Z,1009.47
2023-02-26T04:03:28.104Z,1009.50
2023-02-26T04:04:28.323Z,1009.54
2023-02-26T04:05:28.488Z,1009.54
2023-02-26T04:06:28.660Z,1009.54
2023-02-26T04:07:28.862Z,1009.56
2023-02-26T04:08:29.030Z,1009.59
2023-02-26T04:09:29.214Z,1009.57
2023-02-26T04:10:29.380Z,1009.60
2023-02-26T04:11:29.557Z,1009.58
2023-02-26T04:12:29.769Z,1009.58
2023-02-26T04:13:29.954Z,1009.60
2023-02-26T04:14:30.123Z,1009.61
2023-02-26T04:15:30.307Z,1009.63
2023-02-26T04:16:30.545Z,1009.64
2023-02-26T04:17:30.720Z,1009.69
2023-02-26T04:18:30.888Z,1009.67
2023-02-26T04:19:31.064Z,1009.75
2023-02-26T04:20:31.211Z,1009.73
2023-02-26T04:21:31.398Z,1009.71
2023-02-26T04:22:31.582Z,1009.74
2023-02-26T04:23:31.753Z,1009.79
2023-02-26T04:24:31.946Z,1009.80
2023-02-26T04:25:32.128Z,1009.86
2023-02-26T04:26:32.293Z,1009.83
2023-02-26T04:27:32.470Z,1009.83
2023-02-26T04:28:32.627Z,1009.84
2023-02-26T04:29:32.798Z,1009.84
2023-02-26T04:30:33.016Z,1009.88
2023-02-26T04:31:33.260Z,1009.88
2023-02-26T04:32:33.577Z,1009.92
2023-02-26T04:33:33.696Z,1009.89
2023-02-26T04:34:33.928Z,1009.93
2023-02-26T04:35:34.175Z,1009.89
2023-02-26T04:36:34.352Z,1009.94
2023-02-26T04:37:34.555Z,1009.89
2023-02-26T04:38:34.765Z,1009.94
2023-02-26T04:39:34.922Z,1009.95
2023-02-26T04:40:35.094Z,1009.96
2023-02-26T04:41:35.268Z,1010.01
2023-02-26T04:42:35.460Z,1010.01
2023-02-26T04:43:35.655Z,1010.00
2023-02-26T04:44:35.820Z,1010.05
2023-02-26T04:45:36.027Z,1010.10
2023-02-26T04:46:36.236Z,1010.09
2023-02-26T04:47:36.403Z,1010.07
2023-02-26T04:48:36.584Z,1010.09
2023-02-26T04:49:36.773Z,1010.18
2023-02-26T04:50:36.952Z,1010.12
2023-02-26T04:51:37.138Z,1010.13
2023-02-26T04:52:37.332Z,1010.16
2023-02-26T04:53:37.523Z,1010.19
2023-02-26T04:54:37.689Z,1010.17
2023-02-26T04:55:37.879Z,1010.17
2023-02-26T04:56:38.064Z,1010.23
2023-02-26T04:57:38.261Z,1010.24
2023-02-26T04:58:38.443Z,1010.20
2023-02-26T04:59:38.617Z,1010.26
2023-02-26T05:00:38.814Z,1010.23
2023-02-26T05:01:39.067Z,1010.31
2023-02-26T05:02:39.196Z,1010.29
2023-02-26T05:03:39.422Z,1010.30
2023-02-26T05:04:39.713Z,1010.29
2023-02-26T05:05:39.822Z,1010.31
2023-02-26T05:06:40.009Z,1010.35
2023-02-26T05:07:40.201Z,1010.29
2023-02-26T05:08:40.379Z,1010.31
2023-02-26T05:09:40.572Z,1010.32
2023-02-26T05:10:40.747Z,1010.38
2023-02-26T05:11:40.966Z,1010.36
2023-02-26T05:12:41.180Z,1010.37
2023-02-26T05:13:41.365Z,1010.38
2023-02-26T05:14:41.556Z,1010.44
2023-02-26T05:15:41.798Z,1010.43
2023-02-26T05:16:42.010Z,1010.46
2023-02-26T05:17:42.210Z,1010.50
2023-02-26T05:18:42.400Z,1010.51
2023-02-26T05:19:42.602Z,1010.54
2023-02-26T05:20:42.772Z,1010.52
2023-02-26T05:21:42.979Z,1010.57
2023-02-26T05:22:43.189Z,1010.59
2023-02-26T05:23:43.378Z,1010.58
2023-02-26T05:24:43.557Z,1010.59
2023-02-26T05:25:43.750Z,1010.62
2023-02-26T05:26:43.940Z,1010.63
2023-02-26T05:27:44.180Z,1010.64
2023-02-26T05:28:44.375Z,1010.66
2023-02-26T05:29:44.723Z,1010.65
2023-02-26T05:30:44.827Z,1010.64
2023-02-26T05:31:45.086Z,1010.70
2023-02-26T05:32:45.163Z,1010.68
2023-02-26T05:33:45.416Z,1010.73
2023-02-26T05:34:45.634Z,1010.71
2023-02-26T05:35:45.877Z,1010.75
2023-02-26T05:36:46.109Z,1010.72
2023-02-26T05:37:46.341Z,1010.76
2023-02-26T05:38:46.588Z,1010.74
2023-02-26T05:39:46.836Z,1010.76
2023-02-26T05:40:47.072Z,1010.79
2023-02-26T05:41:47.334Z,1010.81
2023-02-26T05:42:47.593Z,1010.81
2023-02-26T05:43:47.740Z,1010.88
2023-02-26T05:44:47.959Z,1010.86
2023-02-26T05:45:48.210Z,1010.85
2023-02-26T05:46:48.510Z,1010.91
2023-02-26T05:47:48.659Z,1010.92
2023-02-26T05:48:48.772Z,1010.97
2023-02-26T05:49:49.016Z,1010.94
2023-02-26T05:50:49.203Z,1010.95
2023-02-26T05:51:49.401Z,1010.95
2023-02-26T05:52:49.609Z,1011.01
2023-02-26T05:53:49.821Z,1011.00
2023-02-26T05:54:50.021Z,1010.98
2023-02-26T05:55:50.225Z,1011.00
2023-02-26T05:56:50.428Z,1011.02
2023-02-26T05:57:50.645Z,1011.02
2023-02-26T05:58:50.843Z,1011.05
2023-02-26T05:59:51.051Z,1011.05
2023-02-26T06:00:51.253Z,1011.07
2023-02-26T06:01:51.484Z,1011.10
2023-02-26T06:02:51.680Z,1011.13
2023-02-26T06:03:51.860Z,1011.13
2023-02-26T06:04:52.058Z,1011.11
2023-02-26T06:05:52.271Z,1011.15
2023-02-26T06:06:52.459Z,1011.17
2023-02-26T06:07:52.675Z,1011.19
2023-02-26T06:08:52.863Z,1011.20
2023-02-26T06:09:53.064Z,1011.21
2023-02-26T06:10:53.252Z,1011.20
2023-02-26T06:11:53.470Z,1011.20
2023-02-26T06:12:53.684Z,1011.24
2023-02-26T06:13:53.871Z,1011.27
2023-02-26T06:14:54.064Z,1011.27
2023-02-26T06:15:54.351Z,1011.30
2023-02-26T06:16:54.427Z,1011.32
2023-02-26T06:17:54.644Z,1011.33
2023-02-26T06:18:54.855Z,1011.36
2023-02-26T06:19:55.034Z,1011.37
2023-02-26T06:20:55.232Z,1011.39
2023-02-26T06:21:55.426Z,1011.40
2023-02-26T06:22:55.633Z,1011.40
2023-02-26T06:23:55.843Z,1011.40
2023-02-26T06:24:56.043Z,1011.46
2023-02-26T06:25:56.253Z,1011.46
2023-02-26T06:26:56.448Z,1011.51
2023-02-26T06:27:56.656Z,1011.52
2023-02-26T06:28:56.851Z,1011.49
2023-02-26T06:29:57.046Z,1011.51
2023-02-26T06:30:57.319Z,1011.48
2023-02-26T06:31:57.660Z,1011.53
2023-02-26T06:32:57.714Z,1011.55
2023-02-26T06:33:57.911Z,1011.55
2023-02-26T06:34:58.115Z,1011.63
2023-02-26T06:35:58.360Z,1011.59
2023-02-26T06:36:58.543Z,1011.63
2023-02-26T06:37:58.776Z,1011.68
2023-02-26T06:38:58.982Z,1011.67
2023-02-26T06:39:59.164Z,1011.68
2023-02-26T06:40:59.346Z,1011.72
2023-02-26T06:41:59.543Z,1011.77
2023-02-26T06:42:59.752Z,1011.74
2023-02-26T06:43:59.941Z,1011.76
2023-02-26T06:45:00.139Z,1011.76
2023-02-26T06:46:00.401Z,1011.78
2023-02-26T06:47:00.497Z,1011.79
2023-02-26T06:48:00.707Z,1011.86
2023-02-26T06:49:00.884Z,1011.89
2023-02-26T06:50:01.069Z,1011.91
2023-02-26T06:51:01.255Z,1011.90
2023-02-26T06:52:01.443Z,1011.94
2023-02-26T06:53:01.633Z,1011.95
2023-02-26T06:54:01.829Z,1011.97
2023-02-26T06:55:02.007Z,1012.01
2023-02-26T06:56:02.220Z,1011.99
2023-02-26T06:57:02.394Z,1011.95
2023-02-26T06:58:02.594Z,1011.98
2023-02-26T06:59:02.777Z,1011.99
2023-02-26T07:00:03.065Z,1012.00
2023-02-26T07:01:03.166Z,1012.02
2023-02-26T07:02:03.389Z,1012.04
2023-02-26T07:03:03.579Z,1012.04
2023-02-26T07:04:03.780Z,1012.06
2023-02-26T07:05:03.959Z,1012.11
2023-02-26T07:06:25.662Z,1012.14
2023-02-26T07:07:05.366Z,1012.09
2023-02-26T07:08:04.542Z,1012.16
2023-02-26T07:09:04.733Z,1012.17
2023-02-26T07:10:04.831Z,1012.15
2023-02-26T07:11:05.056Z,1012.13
2023-02-26T07:12:05.281Z,1012.13
2023-02-26T07:13:05.528Z,1012.16
2023-02-26T07:14:05.736Z,1012.16
2023-02-26T07:15:05.949Z,1012.16
2023-02-26T07:16:06.165Z,1012.19
2023-02-26T07:17:06.393Z,1012.21
2023-02-26T07:18:06.610Z,1012.20
2023-02-26T07:19:06.706Z,1012.25
2023-02-26T07:20:06.945Z,1012.27
2023-02-26T07:21:07.165Z,1012.32
2023-02-26T07:22:07.455Z,1012.32
2023-02-26T07:23:07.551Z,1012.42
2023-02-26T07:24:07.777Z,1012.48
2023-02-26T07:25:07.894Z,1012.49
2023-02-26T07:26:08.121Z,1012.47
2023-02-26T07:27:08.347Z,1012.49
2023-02-26T07:28:08.626Z,1012.55
2023-02-26T07:29:08.754Z,1012.55
2023-02-26T07:30:09.065Z,1012.56
2023-02-26T07:31:09.330Z,1012.53
2023-02-26T07:32:09.447Z,1012.55
2023-02-26T07:33:09.498Z,1012.52
2023-02-26T07:34:09.692Z,1012.59
2023-02-26T07:35:09.838Z,1012.58
2023-02-26T07:36:10.008Z,1012.55
2023-02-26T07:37:10.166Z,1012.56
2023-02-26T07:38:10.326Z,1012.66
2023-02-26T07:39:10.476Z,1012.58
2023-02-26T07:40:10.645Z,1012.67
2023-02-26T07:41:10.777Z,1012.73
2023-02-26T07:42:11.037Z,1012.66
2023-02-26T07:43:11.191Z,1012.66
2023-02-26T07:44:11.310Z,1012.69
2023-02-26T07:45:11.543Z,1012.73
2023-02-26T07:46:11.847Z,1012.81
2023-02-26T07:47:11.988Z,1012.76
2023-02-26T07:48:12.215Z,1012.78
2023-02-26T07:49:12.323Z,1012.77
2023-02-26T07:50:12.519Z,1012.74
2023-02-26T07:51:12.727Z,1012.73
2023-02-26T07:52:12.916Z,1012.69
2023-02-26T07:53:13.134Z,1012.73
2023-02-26T07:54:13.287Z,1012.66
2023-02-26T07:55:13.456Z,1012.70
2023-02-26T07:56:13.615Z,1012.75
2023-02-26T07:57:13.768Z,1012.80
2023-02-26T07:58:13.936Z,1012.76
2023-02-26T07:59:14.073Z,1012.72
2023-02-26T08:00:14.239Z,1012.74
2023-02-26T08:01:14.404Z,1012.73
2023-02-26T08:02:14.531Z,1012.75
2023-02-26T08:03:14.684Z,1012.78
2023-02-26T08:04:14.827Z,1012.78
2023-02-26T08:05:14.960Z,1012.79
2023-02-26T08:06:15.118Z,1012.76
2023-02-26T08:07:15.252Z,1012.84
2023-02-26T08:08:15.414Z,1012.80
2023-02-26T08:09:15.546Z,1012.85
2023-02-26T08:10:15.661Z,1012.88
2023-02-26T08:11:15.780Z,1012.85
2023-02-26T08:12:15.898Z,1012.85
2023-02-26T08:13:16.043Z,1012.90
2023-02-26T08:14:16.155Z,1012.91
2023-02-26T08:15:16.269Z,1012.90
2023-02-26T08:16:16.470Z,1012.95
2023-02-26T08:17:16.466Z,1012.94
2023-02-26T08:18:16.576Z,1012.92
2023-02-26T08:19:16.688Z,1012.96
2023-02-26T08:20:16.790Z,1012.96
2023-02-26T08:21:16.897Z,1012.94
2023-02-26T08:22:16.981Z,1012.95
2023-02-26T08:23:17.110Z,1012.92
2023-02-26T08:24:17.206Z,1013.02
2023-02-26T08:25:17.338Z,1013.01
2023-02-26T08:26:17.436Z,1013.00
2023-02-26T08:27:17.524Z,1013.01
2023-02-26T08:28:17.651Z,1012.97
2023-02-26T08:29:17.765Z,1013.07
2023-02-26T08:30:17.874Z,1013.04
2023-02-26T08:31:18.142Z,1013.03
2023-02-26T08:32:18.134Z,1013.07
2023-02-26T08:33:18.196Z,1013.06
2023-02-26T08:34:18.293Z,1013.11
2023-02-26T08:35:18.394Z,1013.12
2023-02-26T08:36:18.474Z,1013.17
2023-02-26T08:37:18.593Z,1013.16
2023-02-26T08:38:18.696Z,1013.15
2023-02-26T08:39:18.782Z,1013.17
2023-02-26T08:40:18.861Z,1013.22
2023-02-26T08:41:18.944Z,1013.24
2023-02-26T08:42:19.033Z,1013.20
2023-02-26T08:43:19.158Z,1013.21
2023-02-26T08:44:19.224Z,1013.24
2023-02-26T08:45:19.333Z,1013.22
2023-02-26T08:46:19.428Z,1013.27
2023-02-26T08:47:28.370Z,1013.22
2023-02-26T08:48:20.542Z,1013.24
2023-02-26T08:49:19.628Z,1013.24
2023-02-26T08:50:19.706Z,1013.27
2023-02-26T08:51:19.788Z,1013.30
2023-02-26T08:52:19.870Z,1013.29
2023-02-26T08:53:19.960Z,1013.26
2023-02-26T08:54:20.071Z,1013.24
2023-02-26T08:55:20.154Z,1013.32
2023-02-26T08:56:20.219Z,1013.35
2023-02-26T08:57:20.313Z,1013.31
2023-02-26T08:58:20.376Z,1013.31
2023-02-26T08:59:20.456Z,1013.30
2023-02-26T09:00:20.529Z,1013.34
2023-02-26T09:01:20.600Z,1013.33
2023-02-26T09:02:20.659Z,1013.37
2023-02-26T09:03:20.727Z,1013.36
2023-02-26T09:04:20.801Z,1013.33
2023-02-26T09:05:20.887Z,1013.40
2023-02-26T09:07:18.941Z,1013.44
2023-02-26T09:08:19.006Z,1013.43
2023-02-26T09:09:19.187Z,1013.40
2023-02-26T09:10:19.380Z,1013.36
2023-02-26T09:11:19.527Z,1013.37
2023-02-26T09:12:19.715Z,1013.46
2023-02-26T09:13:19.887Z,1013.41
2023-02-26T09:14:20.042Z,1013.39
2023-02-26T09:15:20.238Z,1013.45
2023-02-26T09:16:20.456Z,1013.44
2023-02-26T09:17:20.596Z,1013.44
2023-02-26T09:18:20.763Z,1013.44
2023-02-26T09:19:20.926Z,1013.33
2023-02-26T09:20:21.098Z,1013.47
2023-02-26T09:21:21.293Z,1013.45
2023-02-26T09:22:21.486Z,1013.53
2023-02-26T09:23:21.655Z,1013.52
2023-02-26T09:24:21.852Z,1013.53
2023-02-26T09:25:24.531Z,1013.52
2023-02-26T09:26:22.138Z,1013.58
2023-02-26T09:27:22.322Z,1013.52
2023-02-26T09:28:22.496Z,1013.62
2023-02-26T09:29:22.652Z,1013.60
2023-02-26T09:30:22.867Z,1013.54
2023-02-26T09:31:23.051Z,1013.69
2023-02-26T09:32:23.254Z,1013.68
2023-02-26T09:33:23.306Z,1013.76
2023-02-26T09:34:23.464Z,1013.77
2023-02-26T09:35:23.650Z,1013.65
2023-02-26T09:36:24.143Z,1013.79
2023-02-26T09:37:23.949Z,1013.79
2023-02-26T09:38:24.137Z,1013.66
2023-02-26T09:39:24.291Z,1013.67
2023-02-26T09:40:24.453Z,1013.81
2023-02-26T09:41:24.617Z,1013.79
2023-02-26T09:42:24.785Z,1013.85
2023-02-26T09:43:24.976Z,1013.84
2023-02-26T09:44:25.139Z,1013.86
2023-02-26T09:45:25.425Z,1013.87
2023-02-26T09:46:25.863Z,1013.84
2023-02-26T09:47:25.590Z,1013.85
2023-02-26T09:48:25.738Z,1013.79
2023-02-26T09:49:25.905Z,1013.88
2023-02-26T09:50:26.076Z,1013.94
2023-02-26T09:51:26.221Z,1013.95
2023-02-26T09:52:26.385Z,1013.98
2023-02-26T09:53:26.484Z,1013.97
2023-02-26T09:54:26.614Z,1013.90
2023-02-26T09:55:26.774Z,1013.97
2023-02-26T09:56:27.217Z,1013.98
2023-02-26T09:57:27.111Z,1013.95
2023-02-26T09:58:27.255Z,1013.99
2023-02-26T09:59:27.390Z,1013.98
2023-02-26T10:00:27.564Z,1013.96
2023-02-26T10:01:27.747Z,1014.02
2023-02-26T10:02:27.890Z,1014.04
2023-02-26T10:03:28.072Z,1013.87
2023-02-26T10:04:28.269Z,1014.08
2023-02-26T10:05:28.312Z,1013.93
2023-02-26T10:06:28.807Z,1014.07
2023-02-26T10:07:28.613Z,1014.08
2023-02-26T10:08:28.831Z,1013.97
2023-02-26T10:09:28.870Z,1014.05
2023-02-26T10:10:29.024Z,1014.07
2023-02-26T10:11:29.173Z,1014.01
2023-02-26T10:12:29.326Z,1014.02
2023-02-26T10:13:29.502Z,1014.01
2023-02-26T10:14:29.670Z,1014.02
2023-02-26T10:15:29.844Z,1014.07
2023-02-26T10:16:30.577Z,1014.03
2023-02-26T10:17:30.150Z,1013.99
2023-02-26T10:18:30.360Z,1014.02
2023-02-26T10:19:30.544Z,1014.11
2023-02-26T10:20:30.776Z,1014.09
2023-02-26T10:21:30.988Z,1014.08
2023-02-26T10:22:31.087Z,1014.19
2023-02-26T10:23:31.273Z,1014.22
2023-02-26T10:24:31.467Z,1014.18
2023-02-26T10:25:31.728Z,1014.21
2023-02-26T10:26:31.924Z,1014.25
2023-02-26T10:27:32.128Z,1014.33
2023-02-26T10:28:32.322Z,1014.21
2023-02-26T10:29:32.512Z,1014.40
2023-02-26T10:30:32.809Z,1014.24
2023-02-26T10:31:32.974Z,1014.22
2023-02-26T10:32:33.157Z,1014.37
2023-02-26T10:33:33.300Z,1014.34
2023-02-26T10:34:33.502Z,1014.37
2023-02-26T10:35:33.698Z,1014.40
2023-02-26T10:36:33.881Z,1014.35
2023-02-26T10:37:34.059Z,1014.45
2023-02-26T10:38:34.240Z,1014.48
2023-02-26T10:39:34.408Z,1014.44
2023-02-26T10:40:34.596Z,1014.47
2023-02-26T10:41:34.773Z,1014.32
2023-02-26T10:42:34.918Z,1014.49
2023-02-26T10:43:35.069Z,1014.50
2023-02-26T10:44:35.227Z,1014.48
2023-02-26T10:45:35.483Z,1014.54
2023-02-26T10:46:35.503Z,1014.47
2023-02-26T10:47:35.642Z,1014.48
2023-02-26T10:48:35.792Z,1014.49
2023-02-26T10:49:35.916Z,1014.55
2023-02-26T10:50:36.067Z,1014.43
2023-02-26T10:51:36.208Z,1014.56
2023-02-26T10:52:36.353Z,1014.58
2023-02-26T10:53:36.469Z,1014.41
2023-02-26T10:54:36.603Z,1014.54
2023-02-26T10:55:36.740Z,1014.46
2023-02-26T10:56:36.931Z,1014.40
2023-02-26T10:57:37.038Z,1014.43
2023-02-26T10:58:37.189Z,1014.46
2023-02-26T10:59:37.339Z,1014.64
2023-02-26T11:00:37.528Z,1014.66
2023-02-26T11:01:37.741Z,1014.61
2023-02-26T11:02:37.857Z,1014.40
2023-02-26T11:03:38.010Z,1014.41
2023-02-26T11:04:38.185Z,1014.49
2023-02-26T11:05:38.352Z,1014.59
2023-02-26T11:06:38.517Z,1014.55
2023-02-26T11:07:38.702Z,1014.52
2023-02-26T11:08:38.868Z,1014.65
2023-02-26T11:09:39.005Z,1014.41
2023-02-26T11:10:39.187Z,1014.33
2023-02-26T11:11:39.345Z,1014.45
2023-02-26T11:12:39.544Z,1014.49
2023-02-26T11:13:39.635Z,1014.46
2023-02-26T11:14:39.807Z,1014.48
2023-02-26T11:15:40.041Z,1014.62
2023-02-26T11:16:40.206Z,1014.50
2023-02-26T11:17:40.369Z,1014.68
2023-02-26T11:18:40.542Z,1014.57
2023-02-26T11:19:40.736Z,1014.64
2023-02-26T11:20:40.947Z,1014.62
2023-02-26T11:21:41.132Z,1014.58
2023-02-26T11:22:41.290Z,1014.58
2023-02-26T11:23:41.455Z,1014.65
2023-02-26T11:24:41.670Z,1014.70
2023-02-26T11:25:41.838Z,1014.74
2023-02-26T11:26:42.014Z,1014.75
2023-02-26T11:27:42.171Z,1014.77
2023-02-26T11:28:42.341Z,1014.53
2023-02-26T11:29:42.525Z,1014.57
2023-02-26T11:30:42.764Z,1014.58
2023-02-26T11:31:42.841Z,1014.64
2023-02-26T11:32:43.048Z,1014.79
2023-02-26T11:33:43.217Z,1014.82
2023-02-26T11:34:43.413Z,1014.65
2023-02-26T11:35:43.566Z,1014.65
2023-02-26T11:36:43.750Z,1014.66
2023-02-26T11:37:43.910Z,1014.69
2023-02-26T11:38:44.074Z,1014.68
2023-02-26T11:39:44.288Z,1014.68
2023-02-26T11:40:44.462Z,1014.69
2023-02-26T11:41:44.674Z,1014.88
2023-02-26T11:42:44.830Z,1014.88
2023-02-26T11:43:45.300Z,1014.78
2023-02-26T11:44:45.206Z,1014.72
2023-02-26T11:45:45.386Z,1014.74
2023-02-26T11:46:45.588Z,1014.78
2023-02-26T11:47:45.768Z,1014.78
2023-02-26T11:48:45.967Z,1014.84
2023-02-26T11:49:46.206Z,1014.85
2023-02-26T11:50:46.404Z,1014.83
2023-02-26T11:51:46.611Z,1014.85
2023-02-26T11:52:46.851Z,1014.86
2023-02-26T11:53:47.047Z,1014.91
2023-02-26T11:54:47.272Z,1014.83
2023-02-26T11:55:47.498Z,1014.92
2023-02-26T11:56:47.713Z,1014.91
2023-02-26T11:57:47.919Z,1014.92
2023-02-26T11:58:48.144Z,1014.90
2023-02-26T11:59:48.361Z,1014.96
2023-02-26T12:00:48.582Z,1014.97
2023-02-26T12:01:48.823Z,1014.97
2023-02-26T12:02:49.090Z,1014.90
2023-02-26T12:03:49.373Z,1014.97
2023-02-26T12:04:49.620Z,1015.00
2023-02-26T12:05:49.724Z,1014.94
2023-02-26T12:06:49.998Z,1014.91
2023-02-26T12:07:50.216Z,1014.93
2023-02-26T12:08:50.475Z,1014.88